Time;durP1;ratioP1;P1;durP2;ratioP2;P2;SDS_P1;SDS_P2;PMS_P1;PMS_P2;Temp;Humidity;BMP_temperature;BMP_pressure;BME280_temperature;BME280_humidity;BME280_pressure;Samples;Min_cycle;Max_cycle;Signal;HPM_P1;HPM_P2
2022/11/02 00:00:43;;;;;;;5.75;1.00;;;;;;;;;;5060321;28;20123;-82
2022/11/02 00:03:08;;;;;;;4.95;1.20;;;;;;;;;;5077606;28;20493;-82
2022/11/02 00:05:34;;;;;;;1.52;0.85;;;;;;;;;;5096133;28;20127;-82
2022/11/02 00:07:59;;;;;;;3.05;1.00;;;;;;;;;;5096118;28;20028;-82
2022/11/02 00:10:24;;;;;;;2.70;0.95;;;;;;;;;;5077385;28;20536;-82
2022/11/02 00:12:50;;;;;;;5.75;1.10;;;;;;;;;;5095848;28;20028;-82
2022/11/02 00:15:16;;;;;;;4.97;1.33;;;;;;;;;;5077431;28;20028;-82
2022/11/02 00:17:45;;;;;;;8.30;1.30;;;;;;;;;;5095618;28;20386;-83
2022/11/02 00:20:11;;;;;;;4.45;1.52;;;;;;;;;;5077282;28;20028;-83
2022/11/02 00:22:37;;;;;;;4.05;1.10;;;;;;;;;;5077827;28;20055;-83
2022/11/02 00:25:03;;;;;;;4.47;1.23;;;;;;;;;;5077245;28;20478;-83
2022/11/02 00:27:30;;;;;;;2.88;1.17;;;;;;;;;;5095023;28;20028;-83
2022/11/02 00:29:56;;;;;;;5.07;1.10;;;;;;;;;;5077142;28;20038;-83
2022/11/02 00:32:22;;;;;;;5.97;1.50;;;;;;;;;;5076925;28;20063;-82
2022/11/02 00:34:47;;;;;;;6.97;1.90;;;;;;;;;;5077266;28;20048;-83
2022/11/02 00:37:12;;;;;;;4.22;1.48;;;;;;;;;;5095597;28;20459;-82
2022/11/02 00:39:38;;;;;;;4.68;1.27;;;;;;;;;;5095010;28;20028;-82
2022/11/02 00:42:04;;;;;;;5.95;1.65;;;;;;;;;;5095222;28;20045;-83
2022/11/02 00:44:29;;;;;;;4.07;1.70;;;;;;;;;;5095003;28;20039;-82
2022/11/02 00:46:54;;;;;;;4.10;1.50;;;;;;;;;;5076655;28;20063;-82
2022/11/02 00:49:20;;;;;;;5.53;1.60;;;;;;;;;;5059853;28;20036;-82
2022/11/02 00:51:46;;;;;;;3.22;1.58;;;;;;;;;;5076705;28;20055;-82
2022/11/02 00:54:11;;;;;;;4.82;1.50;;;;;;;;;;5076524;28;20039;-82
2022/11/02 00:56:37;;;;;;;4.93;1.50;;;;;;;;;;5094796;28;20039;-82
2022/11/02 00:59:03;;;;;;;5.45;1.55;;;;;;;;;;5094552;28;20034;-82
2022/11/02 01:01:28;;;;;;;5.97;1.60;;;;;;;;;;5076247;28;20397;-82
2022/11/02 01:03:55;;;;;;;5.40;1.45;;;;;;;;;;5076361;28;20028;-82
2022/11/02 01:06:21;;;;;;;5.15;1.60;;;;;;;;;;5075999;28;20019;-82
2022/11/02 01:08:46;;;;;;;10.90;1.60;;;;;;;;;;5076430;28;20077;-82
2022/11/02 01:11:14;;;;;;;5.50;1.80;;;;;;;;;;5094211;28;20453;-81
2022/11/02 01:13:40;;;;;;;4.55;1.50;;;;;;;;;;5076126;28;20371;-83
2022/11/02 01:16:06;;;;;;;8.73;1.55;;;;;;;;;;5094514;28;20070;-83
2022/11/02 01:18:31;;;;;;;5.13;1.65;;;;;;;;;;5094441;28;20035;-82
2022/11/02 01:20:58;;;;;;;5.70;1.85;;;;;;;;;;5094293;28;20424;-82
2022/11/02 01:23:23;;;;;;;5.22;1.70;;;;;;;;;;5076137;28;20024;-82
2022/11/02 01:25:48;;;;;;;5.70;1.45;;;;;;;;;;5094042;28;20173;-82
2022/11/02 01:28:14;;;;;;;5.68;1.20;;;;;;;;;;5059553;28;20474;-82
2022/11/02 01:30:39;;;;;;;3.60;1.35;;;;;;;;;;5059514;28;20391;-82
2022/11/02 01:33:05;;;;;;;4.63;1.58;;;;;;;;;;5093952;28;20034;-82
2022/11/02 01:35:30;;;;;;;3.92;1.50;;;;;;;;;;5075841;28;20050;-81
2022/11/02 01:37:56;;;;;;;8.20;1.73;;;;;;;;;;5075793;28;20027;-82
2022/11/02 01:40:21;;;;;;;3.25;1.20;;;;;;;;;;5075720;28;20038;-82
2022/11/02 01:42:47;;;;;;;4.35;1.10;;;;;;;;;;5075934;28;20081;-82
2022/11/02 01:45:13;;;;;;;3.28;1.25;;;;;;;;;;5075507;28;20162;-82
2022/11/02 01:47:42;;;;;;;3.28;1.20;;;;;;;;;;5075494;28;20035;-82
2022/11/02 01:50:11;;;;;;;2.17;0.98;;;;;;;;;;5075519;28;20058;-82
2022/11/02 01:52:38;;;;;;;3.25;1.15;;;;;;;;;;5075462;28;20024;-81
2022/11/02 01:55:05;;;;;;;2.92;0.95;;;;;;;;;;5075589;28;20024;-82
2022/11/02 01:57:32;;;;;;;3.47;1.02;;;;;;;;;;5058587;28;20016;-82
2022/11/02 02:00:06;;;;;;;4.93;1.30;;;;;;;;;;5075676;28;20050;-81
2022/11/02 02:02:32;;;;;;;;;;;;;;;;;;5093881;28;20119;-79
2022/11/02 02:05:03;;;;;;;1.35;0.73;;;;;;;;;;5076121;28;19915;-82
2022/11/02 02:07:29;;;;;;;3.17;1.23;;;;;;;;;;5075197;28;20031;-82
2022/11/02 02:09:55;;;;;;;4.60;0.90;;;;;;;;;;5058438;28;20032;-82
2022/11/02 02:12:21;;;;;;;3.03;1.10;;;;;;;;;;5075403;28;20165;-81
2022/11/02 02:14:47;;;;;;;2.50;1.13;;;;;;;;;;5093495;28;20055;-82
2022/11/02 02:17:27;;;;;;;4.13;1.00;;;;;;;;;;5074366;28;20424;-82
2022/11/02 02:20:17;;;;;;;2.33;0.93;;;;;;;;;;5075271;28;20035;-83
2022/11/02 02:23:02;;;;;;;1.33;0.80;;;;;;;;;;5058615;28;20474;-82
2022/11/02 02:25:50;;;;;;;2.53;0.82;;;;;;;;;;5075018;28;20036;-82
2022/11/02 02:28:42;;;;;;;3.45;1.10;;;;;;;;;;5056517;28;20399;-82
2022/11/02 02:31:23;;;;;;;2.95;0.68;;;;;;;;;;5075845;28;20428;-81
2022/11/02 02:34:18;;;;;;;2.03;0.80;;;;;;;;;;5074919;28;20111;-81
2022/11/02 02:36:50;;;;;;;1.98;0.80;;;;;;;;;;5075333;28;20502;-82
2022/11/02 02:39:36;;;;;;;2.08;1.05;;;;;;;;;;5075768;28;20082;-82
2022/11/02 02:42:22;;;;;;;2.70;0.70;;;;;;;;;;5054510;28;20123;-82
2022/11/02 02:45:14;;;;;;;2.35;0.90;;;;;;;;;;5074814;28;20026;-82
2022/11/02 02:47:51;;;;;;;1.58;0.85;;;;;;;;;;5074771;28;20494;-82
2022/11/02 02:50:20;;;;;;;3.70;0.90;;;;;;;;;;5057940;28;20101;-82
2022/11/02 02:52:48;;;;;;;1.92;0.70;;;;;;;;;;5075083;28;20106;-83
2022/11/02 02:55:17;;;;;;;3.40;0.85;;;;;;;;;;5074946;28;20026;-82
2022/11/02 02:57:44;;;;;;;2.38;0.88;;;;;;;;;;5092851;28;20470;-82
2022/11/02 03:00:15;;;;;;;2.97;0.90;;;;;;;;;;5075314;28;20035;-83
2022/11/02 03:02:41;;;;;;;5.00;1.27;;;;;;;;;;5075358;28;20422;-83
2022/11/02 03:05:24;;;;;;;2.80;1.00;;;;;;;;;;5058321;28;20031;-82
2022/11/02 03:07:49;;;;;;;3.30;0.90;;;;;;;;;;5092902;28;20379;-82
2022/11/02 03:10:19;;;;;;;4.00;1.10;;;;;;;;;;5092712;28;20043;-82
2022/11/02 03:13:17;;;;;;;5.80;1.00;;;;;;;;;;5057960;28;20054;-83
2022/11/02 03:15:54;;;;;;;2.88;0.93;;;;;;;;;;5063845;28;20054;-83
2022/11/02 03:18:42;;;;;;;5.20;1.27;;;;;;;;;;5092637;28;20020;-83
2022/11/02 03:21:25;;;;;;;7.13;1.20;;;;;;;;;;5092727;28;20032;-83
2022/11/02 03:23:59;;;;;;;3.10;1.10;;;;;;;;;;5093389;28;20042;-82
2022/11/02 03:26:37;;;;;;;6.00;1.27;;;;;;;;;;5074519;28;20119;-84
2022/11/02 03:29:32;;;;;;;4.60;1.60;;;;;;;;;;5077399;28;20027;-82
2022/11/02 03:32:00;;;;;;;3.63;1.13;;;;;;;;;;5087777;28;20048;-83
2022/11/02 03:34:25;;;;;;;4.22;1.40;;;;;;;;;;5096758;28;20024;-83
2022/11/02 03:37:14;;;;;;;6.50;1.58;;;;;;;;;;5096449;28;20091;-83
2022/11/02 03:39:47;;;;;;;6.00;1.42;;;;;;;;;;5077999;28;20024;-82
2022/11/02 03:42:16;;;;;;;7.00;1.77;;;;;;;;;;5077950;28;20128;-84
2022/11/02 03:44:43;;;;;;;5.78;1.85;;;;;;;;;;5078306;28;20031;-82
2022/11/02 03:47:10;;;;;;;3.95;1.48;;;;;;;;;;5078427;28;20028;-82
2022/11/02 03:49:38;;;;;;;4.22;1.20;;;;;;;;;;5078311;28;20095;-82
2022/11/02 03:52:05;;;;;;;5.53;1.50;;;;;;;;;;5095958;28;20026;-83
2022/11/02 03:55:04;;;;;;;4.55;1.50;;;;;;;;;;5078471;28;20039;-82
2022/11/02 03:57:45;;;;;;;2.75;1.05;;;;;;;;;;5074456;28;20051;-82
2022/11/02 04:00:15;;;;;;;3.83;1.50;;;;;;;;;;5077922;28;20130;-82
2022/11/02 04:02:44;;;;;;;6.85;1.65;;;;;;;;;;5078150;28;20075;-81
2022/11/02 04:05:09;;;;;;;8.23;1.27;;;;;;;;;;5077706;28;20031;-82
2022/11/02 04:10:20;;;;;;;6.72;1.60;;;;;;;;;;5080178;28;20039;-82
2022/11/02 04:15:29;;;;;;;5.40;1.55;;;;;;;;;;5095659;28;20039;-82
2022/11/02 04:20:39;;;;;;;6.47;1.27;;;;;;;;;;5095586;28;20085;-82
2022/11/02 04:25:53;;;;;;;5.35;1.60;;;;;;;;;;5095866;28;20078;-82
2022/11/02 04:28:18;;;;;;;7.78;1.80;;;;;;;;;;5060819;28;20097;-82
2022/11/02 04:30:44;;;;;;;4.85;1.90;;;;;;;;;;5095589;28;20024;-82
2022/11/02 04:35:53;;;;;;;5.05;1.58;;;;;;;;;;5080340;28;20028;-82
2022/11/02 04:43:46;;;;;;;5.43;1.55;;;;;;;;;;5095814;28;20082;-82
2022/11/02 04:46:12;;;;;;;8.23;1.75;;;;;;;;;;5076824;28;20024;-83
2022/11/02 04:48:37;;;;;;;9.48;1.90;;;;;;;;;;5095275;28;20028;-82
2022/11/02 04:51:02;;;;;;;7.13;1.88;;;;;;;;;;5076638;28;20059;-82
2022/11/02 04:53:28;;;;;;;7.93;1.90;;;;;;;;;;5076716;28;20054;-82
2022/11/02 04:55:53;;;;;;;6.00;1.33;;;;;;;;;;5059986;28;20024;-82
2022/11/02 04:58:19;;;;;;;7.82;2.25;;;;;;;;;;5076740;28;20036;-82
2022/11/02 05:00:44;;;;;;;7.03;1.90;;;;;;;;;;5076570;28;20025;-82
2022/11/02 05:03:09;;;;;;;16.75;2.60;;;;;;;;;;5095404;28;20370;-82
2022/11/02 05:05:35;;;;;;;6.80;1.63;;;;;;;;;;5094878;28;20074;-82
2022/11/02 05:08:00;;;;;;;5.93;1.80;;;;;;;;;;5076667;28;20035;-82
2022/11/02 05:10:25;;;;;;;10.82;1.70;;;;;;;;;;5094678;28;20039;-82
2022/11/02 05:12:58;;;;;;;10.25;2.20;;;;;;;;;;5095034;28;20051;-82
2022/11/02 05:15:23;;;;;;;7.32;1.73;;;;;;;;;;5076618;28;20119;-82
2022/11/02 05:17:49;;;;;;;8.43;2.28;;;;;;;;;;5076373;28;20106;-82
2022/11/02 05:20:14;;;;;;;11.65;1.85;;;;;;;;;;5094717;28;20032;-82
2022/11/02 05:22:43;;;;;;;10.77;2.20;;;;;;;;;;5060098;28;20032;-82
2022/11/02 05:25:09;;;;;;;9.40;2.13;;;;;;;;;;5094936;28;20028;-82
2022/11/02 05:27:35;;;;;;;8.55;2.00;;;;;;;;;;5076860;28;20034;-82
2022/11/02 05:30:00;;;;;;;9.30;2.30;;;;;;;;;;5094906;28;20492;-83
2022/11/02 05:32:26;;;;;;;8.77;2.25;;;;;;;;;;5076580;28;20040;-83
2022/11/02 05:34:51;;;;;;;5.95;2.17;;;;;;;;;;5094226;28;20417;-82
2022/11/02 05:37:17;;;;;;;9.05;2.08;;;;;;;;;;5076109;28;20398;-84
2022/11/02 05:39:42;;;;;;;6.18;2.20;;;;;;;;;;5076281;28;20035;-83
2022/11/02 05:42:08;;;;;;;18.85;3.28;;;;;;;;;;5094618;28;20155;-81
2022/11/02 05:44:33;;;;;;;17.45;3.20;;;;;;;;;;5094589;28;20035;-82
2022/11/02 05:46:59;;;;;;;11.60;2.15;;;;;;;;;;5076096;28;20475;-82
2022/11/02 05:49:24;;;;;;;12.88;2.47;;;;;;;;;;5075885;28;20494;-81
2022/11/02 05:51:49;;;;;;;17.02;2.67;;;;;;;;;;5075938;28;20032;-81
2022/11/02 05:54:15;;;;;;;11.90;2.67;;;;;;;;;;5097157;28;20056;-81
2022/11/02 05:56:40;;;;;;;8.88;2.38;;;;;;;;;;5079037;28;20051;-82
2022/11/02 05:59:05;;;;;;;8.40;2.13;;;;;;;;;;5080228;28;20035;-82
2022/11/02 06:01:31;;;;;;;11.68;2.65;;;;;;;;;;5096904;28;20046;-82
2022/11/02 06:03:56;;;;;;;18.45;2.70;;;;;;;;;;5060706;28;20032;-80
2022/11/02 06:06:22;;;;;;;21.50;2.80;;;;;;;;;;5095796;28;20032;-80
2022/11/02 06:08:47;;;;;;;12.90;3.20;;;;;;;;;;5076438;28;20031;-81
2022/11/02 06:11:13;;;;;;;15.73;2.58;;;;;;;;;;5077117;28;20024;-82
2022/11/02 06:13:39;;;;;;;8.40;2.13;;;;;;;;;;5073763;28;20475;-81
2022/11/02 06:16:08;;;;;;;11.07;2.70;;;;;;;;;;5073792;28;20031;-80
2022/11/02 06:18:34;;;;;;;11.27;2.10;;;;;;;;;;5073139;28;20440;-80
2022/11/02 06:20:59;;;;;;;9.00;2.72;;;;;;;;;;5089420;28;20060;-79
2022/11/02 06:23:25;;;;;;;9.82;2.05;;;;;;;;;;5059723;28;20077;-79
2022/11/02 06:25:52;;;;;;;4.78;1.60;;;;;;;;;;5094435;28;20028;-80
2022/11/02 06:28:17;;;;;;;12.88;1.92;;;;;;;;;;5076370;28;20032;-80
2022/11/02 06:30:43;;;;;;;7.22;2.03;;;;;;;;;;5076799;28;20077;-81
2022/11/02 06:33:08;;;;;;;7.10;1.88;;;;;;;;;;5060742;28;20032;-79
2022/11/02 06:35:34;;;;;;;13.32;2.40;;;;;;;;;;5094305;28;20028;-81
2022/11/02 06:37:59;;;;;;;12.90;2.03;;;;;;;;;;5076571;28;20067;-81
2022/11/02 06:40:25;;;;;;;11.30;2.13;;;;;;;;;;5094326;28;20382;-80
2022/11/02 06:42:57;;;;;;;8.40;1.83;;;;;;;;;;5059440;28;20039;-80
2022/11/02 06:45:23;;;;;;;8.68;1.92;;;;;;;;;;5076274;28;20063;-81
2022/11/02 06:47:48;;;;;;;12.30;2.17;;;;;;;;;;5075889;28;20119;-81
2022/11/02 06:50:14;;;;;;;10.05;1.98;;;;;;;;;;5075636;28;20090;-81
2022/11/02 06:52:43;;;;;;;6.80;2.08;;;;;;;;;;5075628;28;20040;-81
2022/11/02 06:55:09;;;;;;;7.70;1.67;;;;;;;;;;5076234;28;20115;-80
2022/11/02 06:57:36;;;;;;;7.60;1.77;;;;;;;;;;5060194;28;20115;-81
2022/11/02 07:00:03;;;;;;;8.80;2.03;;;;;;;;;;5077184;28;20027;-80
2022/11/02 07:02:30;;;;;;;7.93;2.00;;;;;;;;;;5060042;28;20150;-79
2022/11/02 07:04:55;;;;;;;6.88;1.58;;;;;;;;;;5079968;28;20028;-80
2022/11/02 07:07:21;;;;;;;8.02;1.80;;;;;;;;;;5080817;28;20031;-81
2022/11/02 07:09:46;;;;;;;8.00;1.75;;;;;;;;;;5079674;28;20155;-80
2022/11/02 07:12:12;;;;;;;6.35;1.73;;;;;;;;;;5079739;28;20058;-82
2022/11/02 07:14:37;;;;;;;7.82;1.55;;;;;;;;;;5080062;28;20080;-81
2022/11/02 07:17:03;;;;;;;8.88;1.95;;;;;;;;;;5099594;28;20111;-79
2022/11/02 07:19:28;;;;;;;7.47;2.15;;;;;;;;;;5095628;28;20493;-79
2022/11/02 07:21:53;;;;;;;8.77;1.92;;;;;;;;;;5077267;28;20381;-81
2022/11/02 07:24:19;;;;;;;6.65;1.88;;;;;;;;;;5077620;28;20412;-82
2022/11/02 07:26:49;;;;;;;5.88;1.50;;;;;;;;;;5060482;28;20048;-79
2022/11/02 07:29:18;;;;;;;6.65;1.70;;;;;;;;;;5058609;28;20035;-83
2022/11/02 07:31:44;;;;;;;5.18;1.70;;;;;;;;;;5058525;28;20025;-80
2022/11/02 07:34:09;;;;;;;12.85;2.13;;;;;;;;;;5058504;28;20360;-79
2022/11/02 07:36:35;;;;;;;9.52;2.38;;;;;;;;;;5076393;28;20025;-80
2022/11/02 07:39:01;;;;;;;8.00;1.90;;;;;;;;;;5025265;28;20040;-82
2022/11/02 07:41:26;;;;;;;6.28;1.80;;;;;;;;;;5058558;28;20028;-83
2022/11/02 07:43:51;;;;;;;12.02;1.80;;;;;;;;;;5060079;28;20475;-83
2022/11/02 07:46:17;;;;;;;16.02;1.90;;;;;;;;;;5061180;28;20054;-84
2022/11/02 07:48:43;;;;;;;10.25;2.03;;;;;;;;;;5079258;28;20035;-85
2022/11/02 07:51:10;;;;;;;14.55;2.33;;;;;;;;;;5045430;28;20121;-84
2022/11/02 07:53:36;;;;;;;5.68;1.75;;;;;;;;;;5066978;28;20078;-83
2022/11/02 07:56:02;;;;;;;8.13;1.83;;;;;;;;;;5053176;28;20028;-84
2022/11/02 07:58:27;;;;;;;8.88;1.80;;;;;;;;;;5043108;28;20398;-80
2022/11/02 08:00:56;;;;;;;6.20;1.45;;;;;;;;;;5060210;28;20085;-81
2022/11/02 08:03:21;;;;;;;6.32;1.77;;;;;;;;;;5060440;28;20107;-80
2022/11/02 08:05:46;;;;;;;7.75;1.70;;;;;;;;;;5059744;28;20111;-81
2022/11/02 08:08:14;;;;;;;8.20;2.05;;;;;;;;;;5043079;28;20024;-81
2022/11/02 08:10:40;;;;;;;8.45;2.20;;;;;;;;;;5043889;28;20041;-80
2022/11/02 08:13:11;;;;;;;14.10;2.22;;;;;;;;;;5044699;28;20048;-83
2022/11/02 08:15:36;;;;;;;12.25;2.60;;;;;;;;;;5060200;28;20424;-81
2022/11/02 08:18:13;;;;;;;9.80;2.28;;;;;;;;;;5059270;28;20040;-81
2022/11/02 08:20:38;;;;;;;15.18;1.90;;;;;;;;;;5076903;28;20036;-81
2022/11/02 08:23:04;;;;;;;9.50;1.95;;;;;;;;;;5042295;28;20037;-81
2022/11/02 08:25:30;;;;;;;5.45;1.63;;;;;;;;;;5059205;28;20032;-82
2022/11/02 08:27:58;;;;;;;6.68;1.60;;;;;;;;;;5042845;28;20032;-82
2022/11/02 08:30:24;;;;;;;7.93;1.73;;;;;;;;;;5077293;28;20438;-81
2022/11/02 08:32:50;;;;;;;16.00;1.90;;;;;;;;;;5058575;28;20033;-81
2022/11/02 08:35:15;;;;;;;10.32;2.03;;;;;;;;;;5076258;28;20078;-81
2022/11/02 08:37:40;;;;;;;7.88;1.70;;;;;;;;;;5058538;28;20028;-81
2022/11/02 08:40:07;;;;;;;5.22;1.70;;;;;;;;;;5058417;28;20066;-81
2022/11/02 08:42:32;;;;;;;7.72;1.67;;;;;;;;;;5041438;28;20048;-80
2022/11/02 08:44:57;;;;;;;8.48;2.05;;;;;;;;;;5025032;28;20033;-80
2022/11/02 08:47:23;;;;;;;5.07;1.50;;;;;;;;;;5058749;28;20518;-80
2022/11/02 08:49:50;;;;;;;9.82;1.73;;;;;;;;;;5058215;28;20507;-80
2022/11/02 08:52:16;;;;;;;5.95;1.83;;;;;;;;;;5076079;28;20024;-81
2022/11/02 08:54:42;;;;;;;5.45;1.40;;;;;;;;;;5058574;28;20032;-81
2022/11/02 08:57:07;;;;;;;9.85;1.90;;;;;;;;;;5041257;28;20028;-81
2022/11/02 08:59:32;;;;;;;6.82;1.85;;;;;;;;;;5041745;28;20036;-81
2022/11/02 09:01:58;;;;;;;5.72;1.40;;;;;;;;;;5040948;28;20122;-80
2022/11/02 09:04:23;;;;;;;6.72;1.77;;;;;;;;;;5058065;28;20028;-80
2022/11/02 09:06:48;;;;;;;6.68;2.17;;;;;;;;;;5057684;28;20028;-80
2022/11/02 09:09:14;;;;;;;6.18;1.77;;;;;;;;;;5075378;28;20020;-79
2022/11/02 09:11:39;;;;;;;8.52;1.50;;;;;;;;;;5038800;28;20044;-82
2022/11/02 09:14:06;;;;;;;9.23;1.67;;;;;;;;;;5041585;28;20029;-80
2022/11/02 09:16:32;;;;;;;7.13;1.50;;;;;;;;;;5025510;28;20031;-80
2022/11/02 09:18:57;;;;;;;8.20;1.73;;;;;;;;;;5041138;28;20490;-80
2022/11/02 09:21:22;;;;;;;6.88;1.75;;;;;;;;;;5057280;28;20383;-80
2022/11/02 09:23:48;;;;;;;6.35;1.63;;;;;;;;;;5057572;28;20119;-80
2022/11/02 09:26:14;;;;;;;8.02;1.35;;;;;;;;;;5076021;28;20059;-81
2022/11/02 09:28:39;;;;;;;8.95;1.70;;;;;;;;;;5075527;28;20463;-81
2022/11/02 09:31:05;;;;;;;6.25;1.63;;;;;;;;;;5040569;28;20123;-81
2022/11/02 09:33:31;;;;;;;12.57;1.92;;;;;;;;;;5057687;28;20394;-81
2022/11/02 09:36:01;;;;;;;7.10;1.55;;;;;;;;;;5057318;28;20055;-82
2022/11/02 09:38:26;;;;;;;9.02;1.80;;;;;;;;;;5048195;28;20021;-80
2022/11/02 09:40:58;;;;;;;8.52;1.63;;;;;;;;;;5035519;28;20032;-80
2022/11/02 09:44:00;;;;;;;8.60;1.90;;;;;;;;;;5035666;28;20411;-81
2022/11/02 09:46:27;;;;;;;5.10;1.42;;;;;;;;;;5019685;28;20025;-79
2022/11/02 09:48:57;;;;;;;6.63;1.75;;;;;;;;;;5019928;28;20484;-80
2022/11/02 09:51:38;;;;;;;7.18;1.63;;;;;;;;;;5052325;28;20041;-80
2022/11/02 09:54:08;;;;;;;7.03;1.73;;;;;;;;;;5054808;28;20032;-82
2022/11/02 09:56:34;;;;;;;6.60;1.92;;;;;;;;;;5056009;28;20016;-81
2022/11/02 09:59:02;;;;;;;8.13;1.67;;;;;;;;;;5038893;28;20036;-81
2022/11/02 10:02:08;;;;;;;5.47;1.52;;;;;;;;;;5056264;28;20052;-81
2022/11/02 10:04:55;;;;;;;9.73;2.15;;;;;;;;;;5055897;28;20031;-82
2022/11/02 10:07:51;;;;;;;7.18;1.80;;;;;;;;;;5055904;28;20051;-82
2022/11/02 10:10:19;;;;;;;9.93;1.40;;;;;;;;;;5053171;28;20047;-82
2022/11/02 10:12:58;;;;;;;6.75;1.50;;;;;;;;;;5054987;28;20033;-81
2022/11/02 10:15:25;;;;;;;8.13;1.83;;;;;;;;;;5053587;28;20025;-81
2022/11/02 10:17:56;;;;;;;7.88;1.75;;;;;;;;;;5054029;28;20021;-80
2022/11/02 10:20:24;;;;;;;4.40;1.40;;;;;;;;;;5036405;28;20072;-79
2022/11/02 10:22:49;;;;;;;8.70;1.80;;;;;;;;;;5053360;28;20029;-81
2022/11/02 10:25:15;;;;;;;7.32;2.30;;;;;;;;;;5038780;28;20089;-80
2022/11/02 10:27:43;;;;;;;4.93;1.63;;;;;;;;;;5055675;28;20024;-81
2022/11/02 10:30:18;;;;;;;7.57;1.83;;;;;;;;;;5056070;28;20230;-80
2022/11/02 10:32:47;;;;;;;5.20;1.65;;;;;;;;;;5055926;28;20077;-79
2022/11/02 10:35:30;;;;;;;5.40;1.83;;;;;;;;;;5055020;28;20032;-79
2022/11/02 10:38:04;;;;;;;7.25;1.55;;;;;;;;;;5056253;28;20103;-79
2022/11/02 10:40:55;;;;;;;7.88;1.75;;;;;;;;;;5076682;28;20032;-79
2022/11/02 10:43:30;;;;;;;7.22;1.45;;;;;;;;;;5058805;28;20032;-79
2022/11/02 10:45:58;;;;;;;3.90;1.60;;;;;;;;;;5058500;28;20029;-79
2022/11/02 10:48:42;;;;;;;5.45;1.48;;;;;;;;;;5076259;28;20077;-80
2022/11/02 10:51:11;;;;;;;;;;;;;;;;;;5076569;28;20079;-79
2022/11/02 10:53:42;;;;;;;4.55;1.52;;;;;;;;;;5058198;28;19967;-79
2022/11/02 10:56:10;;;;;;;5.38;1.65;;;;;;;;;;5059504;28;20040;-81
2022/11/02 10:58:39;;;;;;;6.63;1.80;;;;;;;;;;5044060;28;20107;-80
2022/11/02 11:01:10;;;;;;;8.13;1.92;;;;;;;;;;5044179;28;20035;-80
2022/11/02 11:03:54;;;;;;;5.57;1.50;;;;;;;;;;5044323;28;20531;-80
2022/11/02 11:06:20;;;;;;;5.30;1.50;;;;;;;;;;5062703;28;20024;-80
2022/11/02 11:08:48;;;;;;;7.25;1.85;;;;;;;;;;5067851;28;20029;-79
2022/11/02 11:11:16;;;;;;;7.55;1.90;;;;;;;;;;5042752;28;20024;-80
2022/11/02 11:13:43;;;;;;;11.27;1.58;;;;;;;;;;5041765;28;20395;-80
2022/11/02 11:16:09;;;;;;;7.85;1.92;;;;;;;;;;5060626;28;20459;-80
2022/11/02 11:18:36;;;;;;;9.77;2.05;;;;;;;;;;5043706;28;20036;-80
2022/11/02 11:21:02;;;;;;;6.95;1.70;;;;;;;;;;5024941;28;20025;-80
2022/11/02 11:23:27;;;;;;;9.63;1.90;;;;;;;;;;5057782;28;20063;-80
2022/11/02 11:25:58;;;;;;;6.70;2.10;;;;;;;;;;5039410;28;20471;-79
2022/11/02 11:28:47;;;;;;;10.32;2.30;;;;;;;;;;5038734;28;20028;-79
2022/11/02 11:31:15;;;;;;;5.05;1.88;;;;;;;;;;5056508;28;20028;-79
2022/11/02 11:33:54;;;;;;;7.10;1.60;;;;;;;;;;5037683;28;20052;-79
2022/11/02 11:36:24;;;;;;;9.43;1.73;;;;;;;;;;5038368;28;20025;-80
2022/11/02 11:38:51;;;;;;;6.47;1.70;;;;;;;;;;5038667;28;20058;-81
2022/11/02 11:41:17;;;;;;;6.88;1.60;;;;;;;;;;5037955;28;20055;-79
2022/11/02 11:43:43;;;;;;;7.85;1.88;;;;;;;;;;5056122;28;20449;-78
2022/11/02 11:46:10;;;;;;;13.57;1.90;;;;;;;;;;5037786;28;20068;-79
2022/11/02 11:48:39;;;;;;;15.73;2.03;;;;;;;;;;5054874;28;20037;-79
2022/11/02 11:51:27;;;;;;;6.25;1.60;;;;;;;;;;5069542;28;20052;-79
2022/11/02 11:54:27;;;;;;;9.27;1.98;;;;;;;;;;5057884;28;20077;-78
2022/11/02 11:56:57;;;;;;;9.43;1.92;;;;;;;;;;5075249;28;20028;-79
2022/11/02 11:59:24;;;;;;;11.25;1.85;;;;;;;;;;5057582;28;20020;-79
2022/11/02 12:02:00;;;;;;;8.95;1.70;;;;;;;;;;5075539;28;20321;-79
2022/11/02 12:04:27;;;;;;;9.05;1.85;;;;;;;;;;5073813;28;20052;-79
2022/11/02 12:06:56;;;;;;;10.02;1.67;;;;;;;;;;5074108;28;20035;-78
2022/11/02 12:09:35;;;;;;;5.55;1.73;;;;;;;;;;5074909;28;20020;-80
2022/11/02 12:12:06;;;;;;;8.88;1.65;;;;;;;;;;5074122;28;20039;-80
2022/11/02 12:14:47;;;;;;;5.15;1.60;;;;;;;;;;5074517;28;20066;-79
2022/11/02 12:17:18;;;;;;;9.35;1.80;;;;;;;;;;5075016;28;20020;-78
2022/11/02 12:20:17;;;;;;;9.25;1.60;;;;;;;;;;5073971;28;20036;-81
2022/11/02 12:23:12;;;;;;;7.35;1.70;;;;;;;;;;5059840;28;20046;-76
2022/11/02 12:25:51;;;;;;;4.05;1.40;;;;;;;;;;5053530;28;20145;-79
2022/11/02 12:28:30;;;;;;;5.57;1.55;;;;;;;;;;5075435;28;20027;-79
2022/11/02 12:31:27;;;;;;;6.32;1.67;;;;;;;;;;5075038;28;20387;-80
2022/11/02 12:34:25;;;;;;;6.13;2.00;;;;;;;;;;5073978;28;20031;-81
2022/11/02 12:37:04;;;;;;;7.03;1.67;;;;;;;;;;5073937;28;20017;-79
2022/11/02 12:39:42;;;;;;;6.97;1.98;;;;;;;;;;5073174;28;20150;-80
2022/11/02 12:42:28;;;;;;;5.50;1.58;;;;;;;;;;5073640;28;20040;-79
2022/11/02 12:44:57;;;;;;;6.35;1.70;;;;;;;;;;5057628;28;20025;-80
2022/11/02 12:47:49;;;;;;;12.00;1.65;;;;;;;;;;5074305;28;20447;-80
2022/11/02 12:50:30;;;;;;;6.15;1.83;;;;;;;;;;5056425;28;20598;-79
2022/11/02 12:53:34;;;;;;;6.47;1.45;;;;;;;;;;5072829;28;20083;-79
2022/11/02 12:56:02;;;;;;;8.80;1.70;;;;;;;;;;5069125;28;20043;-79
2022/11/02 12:58:29;;;;;;;14.02;1.73;;;;;;;;;;5071092;28;20394;-80
2022/11/02 13:01:01;;;;;;;14.35;1.92;;;;;;;;;;5055015;28;20036;-79
2022/11/02 13:03:53;;;;;;;5.68;1.60;;;;;;;;;;5056236;28;20035;-79
2022/11/02 13:06:24;;;;;;;8.75;1.73;;;;;;;;;;5056282;28;20070;-79
2022/11/02 13:08:57;;;;;;;5.35;1.52;;;;;;;;;;5056045;28;20032;-79
2022/11/02 13:11:59;;;;;;;7.07;1.80;;;;;;;;;;5039775;28;20035;-79
2022/11/02 13:14:28;;;;;;;5.55;1.33;;;;;;;;;;5059634;28;20040;-80
2022/11/02 13:17:00;;;;;;;5.78;1.85;;;;;;;;;;5073774;28;20069;-80
2022/11/02 13:19:56;;;;;;;9.27;1.38;;;;;;;;;;5074557;28;20024;-79
2022/11/02 13:22:26;;;;;;;12.57;2.42;;;;;;;;;;5038813;28;20089;-81
2022/11/02 13:24:55;;;;;;;7.25;1.48;;;;;;;;;;5056415;28;20088;-82
2022/11/02 13:27:35;;;;;;;9.13;2.10;;;;;;;;;;5057406;28;20214;-81
2022/11/02 13:30:04;;;;;;;5.28;2.05;;;;;;;;;;5039391;28;20077;-82
2022/11/02 13:32:36;;;;;;;5.25;1.88;;;;;;;;;;5039684;28;20039;-82
2022/11/02 13:35:05;;;;;;;11.30;1.88;;;;;;;;;;5039533;28;20029;-80
2022/11/02 13:37:37;;;;;;;11.48;2.00;;;;;;;;;;5056315;28;20020;-81
2022/11/02 13:40:33;;;;;;;12.15;1.92;;;;;;;;;;5039721;28;20035;-81
2022/11/02 13:43:13;;;;;;;11.45;1.98;;;;;;;;;;5056446;28;20391;-81
2022/11/02 13:45:58;;;;;;;11.52;1.92;;;;;;;;;;5074498;28;20035;-81
2022/11/02 13:48:47;;;;;;;3.75;1.40;;;;;;;;;;5073492;28;20116;-81
2022/11/02 13:51:21;;;;;;;5.28;1.90;;;;;;;;;;5055845;28;20114;-81
2022/11/02 13:53:59;;;;;;;16.27;1.45;;;;;;;;;;5055569;28;20376;-81
2022/11/02 13:56:27;;;;;;;5.25;2.08;;;;;;;;;;5056291;28;20463;-84
2022/11/02 13:58:55;;;;;;;13.63;2.72;;;;;;;;;;5056518;28;20028;-84
2022/11/02 14:01:21;;;;;;;6.43;1.80;;;;;;;;;;5040433;28;20372;-83
2022/11/02 14:04:08;;;;;;;7.43;1.90;;;;;;;;;;5057311;28;20062;-84
2022/11/02 14:06:47;;;;;;;4.22;1.40;;;;;;;;;;5057306;28;20033;-84
2022/11/02 14:09:23;;;;;;;6.07;1.65;;;;;;;;;;5057077;28;20024;-84
2022/11/02 14:11:48;;;;;;;6.10;1.75;;;;;;;;;;5056834;28;20028;-85
2022/11/02 14:14:21;;;;;;;6.90;1.92;;;;;;;;;;5057464;28;20062;-85
2022/11/02 14:16:49;;;;;;;6.85;1.98;;;;;;;;;;5040482;28;20047;-84
2022/11/02 14:19:14;;;;;;;9.23;1.73;;;;;;;;;;5074409;28;20027;-85
2022/11/02 14:21:42;;;;;;;9.30;1.80;;;;;;;;;;5056020;28;20368;-85
2022/11/02 14:24:34;;;;;;;8.82;2.17;;;;;;;;;;5074427;28;20154;-86
2022/11/02 14:27:04;;;;;;;5.25;1.63;;;;;;;;;;5032640;28;20077;-84
2022/11/02 14:29:43;;;;;;;3.97;1.38;;;;;;;;;;5057384;28;20033;-85
2022/11/02 14:32:36;;;;;;;7.03;1.65;;;;;;;;;;5058850;28;20024;-84
2022/11/02 14:35:10;;;;;;;5.85;1.73;;;;;;;;;;5056869;28;20028;-85
2022/11/02 14:37:44;;;;;;;8.38;1.63;;;;;;;;;;5073708;28;20017;-82
2022/11/02 14:40:25;;;;;;;15.30;1.73;;;;;;;;;;5058395;28;20028;-84
2022/11/02 14:43:47;;;;;;;5.97;1.70;;;;;;;;;;5076237;28;20086;-85
2022/11/02 14:46:25;;;;;;;9.82;2.08;;;;;;;;;;4993610;28;20044;-84
2022/11/02 14:48:54;;;;;;;8.30;1.90;;;;;;;;;;5011618;28;20125;-85
2022/11/02 14:51:23;;;;;;;5.13;1.58;;;;;;;;;;5033877;28;20131;-84
2022/11/02 14:53:55;;;;;;;12.10;2.10;;;;;;;;;;5039690;28;20031;-84
2022/11/02 14:56:21;;;;;;;5.80;1.45;;;;;;;;;;5055933;28;20024;-84
2022/11/02 14:58:52;;;;;;;7.95;1.73;;;;;;;;;;5055552;28;20494;-84
2022/11/02 15:01:18;;;;;;;7.78;1.60;;;;;;;;;;5056621;28;20028;-84
2022/11/02 15:03:44;;;;;;;7.30;2.30;;;;;;;;;;5056201;28;20512;-84
2022/11/02 15:06:09;;;;;;;8.20;1.70;;;;;;;;;;5056562;28;20119;-84
2022/11/02 15:08:47;;;;;;;6.32;1.50;;;;;;;;;;5073578;28;20024;-84
2022/11/02 15:11:43;;;;;;;5.32;1.52;;;;;;;;;;5074567;28;20471;-84
2022/11/02 15:14:37;;;;;;;6.32;1.70;;;;;;;;;;5056156;28;20025;-84
2022/11/02 15:17:09;;;;;;;5.43;1.45;;;;;;;;;;5074288;28;20540;-84
2022/11/02 15:19:37;;;;;;;6.13;1.85;;;;;;;;;;5073871;28;20028;-85
2022/11/02 15:22:27;;;;;;;5.80;1.80;;;;;;;;;;5038974;28;20036;-84